sensor_id;sensor_type;location;lat;lon;timestamp;pressure;altitude;pressure_sealevel;temperature;humidity
68179;BME280;54998;42.656;23.382;2023-02-04T00:01:27;94696.28;;;-0.71;76.10
68179;BME280;54998;42.656;23.382;2023-02-04T00:03:52;94693.53;;;-0.84;77.04
68179;BME280;54998;42.656;23.382;2023-02-04T00:06:17;94684.72;;;-0.75;77.28
68179;BME280;54998;42.656;23.382;2023-02-04T00:08:43;94681.44;;;-0.77;77.14
68179;BME280;54998;42.656;23.382;2023-02-04T00:11:08;94678.34;;;-0.82;77.76
68179;BME280;54998;42.656;23.382;2023-02-04T00:13:33;94666.81;;;-1.04;78.40
68179;BME280;54998;42.656;23.382;2023-02-04T00:15:59;94677.97;;;-0.92;78.74
68179;BME280;54998;42.656;23.382;2023-02-04T00:18:24;94662.59;;;-1.03;79.08
68179;BME280;54998;42.656;23.382;2023-02-04T00:20:50;94665.03;;;-1.01;79.40
68179;BME280;54998;42.656;23.382;2023-02-04T00:23:15;94657.38;;;-1.00;79.35
68179;BME280;54998;42.656;23.382;2023-02-04T00:25:40;94663.09;;;-0.96;79.18
68179;BME280;54998;42.656;23.382;2023-02-04T00:28:06;94661.91;;;-1.07;79.89
68179;BME280;54998;42.656;23.382;2023-02-04T00:30:31;94642.66;;;-1.25;80.14
68179;BME280;54998;42.656;23.382;2023-02-04T00:32:57;94658.28;;;-1.18;80.35
68179;BME280;54998;42.656;23.382;2023-02-04T00:35:23;94660.34;;;-1.09;80.22
68179;BME280;54998;42.656;23.382;2023-02-04T00:37:49;94655.84;;;-1.20;80.64
68179;BME280;54998;42.656;23.382;2023-02-04T00:40:15;94653.09;;;-1.33;80.96
68179;BME280;54998;42.656;23.382;2023-02-04T00:42:40;94658.34;;;-1.20;80.70
68179;BME280;54998;42.656;23.382;2023-02-04T00:45:06;94647.31;;;-1.17;80.78
68179;BME280;54998;42.656;23.382;2023-02-04T00:47:31;94661.84;;;-1.22;81.15
68179;BME280;54998;42.656;23.382;2023-02-04T00:49:56;94651.53;;;-1.18;80.93
68179;BME280;54998;42.656;23.382;2023-02-04T00:52:22;94651.25;;;-1.12;80.70
68179;BME280;54998;42.656;23.382;2023-02-04T00:54:48;94641.75;;;-1.07;80.49
68179;BME280;54998;42.656;23.382;2023-02-04T00:57:13;94647.41;;;-1.19;80.46
68179;BME280;54998;42.656;23.382;2023-02-04T00:59:38;94655.09;;;-1.05;80.34
68179;BME280;54998;42.656;23.382;2023-02-04T01:02:04;94640.41;;;-0.96;80.24
68179;BME280;54998;42.656;23.382;2023-02-04T01:04:29;94635.16;;;-0.92;79.80
68179;BME280;54998;42.656;23.382;2023-02-04T01:06:54;94632.63;;;-0.92;79.59
68179;BME280;54998;42.656;23.382;2023-02-04T01:09:20;94626.13;;;-0.96;79.80
68179;BME280;54998;42.656;23.382;2023-02-04T01:11:45;94620.28;;;-0.96;79.84
68179;BME280;54998;42.656;23.382;2023-02-04T01:14:11;94622.50;;;-1.08;80.04
68179;BME280;54998;42.656;23.382;2023-02-04T01:16:37;94610.78;;;-1.09;80.13
68179;BME280;54998;42.656;23.382;2023-02-04T01:19:02;94597.41;;;-1.09;80.07
68179;BME280;54998;42.656;23.382;2023-02-04T01:21:28;94606.50;;;-1.07;79.90
68179;BME280;54998;42.656;23.382;2023-02-04T01:23:53;94597.91;;;-1.02;79.97
68179;BME280;54998;42.656;23.382;2023-02-04T01:26:19;94597.25;;;-1.06;79.88
68179;BME280;54998;42.656;23.382;2023-02-04T01:28:45;94591.09;;;-1.00;79.81
68179;BME280;54998;42.656;23.382;2023-02-04T01:31:11;94592.63;;;-0.98;79.58
68179;BME280;54998;42.656;23.382;2023-02-04T01:33:36;94588.47;;;-1.15;79.64
68179;BME280;54998;42.656;23.382;2023-02-04T01:36:02;94572.88;;;-1.06;79.68
68179;BME280;54998;42.656;23.382;2023-02-04T01:38:27;94579.47;;;-1.03;79.68
68179;BME280;54998;42.656;23.382;2023-02-04T01:40:52;94575.69;;;-1.12;79.75
68179;BME280;54998;42.656;23.382;2023-02-04T01:43:19;94574.50;;;-1.05;79.47
68179;BME280;54998;42.656;23.382;2023-02-04T01:45:47;94564.28;;;-1.01;79.44
68179;BME280;54998;42.656;23.382;2023-02-04T01:48:13;94563.69;;;-1.07;79.05
68179;BME280;54998;42.656;23.382;2023-02-04T01:50:46;94554.59;;;-1.09;78.92
68179;BME280;54998;42.656;23.382;2023-02-04T01:53:11;94563.63;;;-1.05;78.24
68179;BME280;54998;42.656;23.382;2023-02-04T01:55:37;94554.44;;;-1.06;78.01
68179;BME280;54998;42.656;23.382;2023-02-04T01:58:02;94562.59;;;-1.18;78.51
68179;BME280;54998;42.656;23.382;2023-02-04T02:00:30;94553.78;;;-1.10;78.22
68179;BME280;54998;42.656;23.382;2023-02-04T02:02:57;94555.75;;;-0.99;78.05
68179;BME280;54998;42.656;23.382;2023-02-04T02:05:26;94548.56;;;-1.07;77.58
68179;BME280;54998;42.656;23.382;2023-02-04T02:07:55;94534.94;;;-1.02;77.57
68179;BME280;54998;42.656;23.382;2023-02-04T02:10:23;94539.34;;;-1.06;77.79
68179;BME280;54998;42.656;23.382;2023-02-04T02:12:48;94550.22;;;-1.06;77.62
68179;BME280;54998;42.656;23.382;2023-02-04T02:15:15;94554.94;;;-0.99;77.81
68179;BME280;54998;42.656;23.382;2023-02-04T02:17:41;94535.19;;;-0.91;77.47
68179;BME280;54998;42.656;23.382;2023-02-04T02:20:09;94528.06;;;-0.83;77.02
68179;BME280;54998;42.656;23.382;2023-02-04T02:22:51;94534.75;;;-0.82;76.52
68179;BME280;54998;42.656;23.382;2023-02-04T02:25:19;94527.81;;;-0.78;76.36
68179;BME280;54998;42.656;23.382;2023-02-04T02:27:44;94520.50;;;-0.83;76.54
68179;BME280;54998;42.656;23.382;2023-02-04T02:30:12;94507.66;;;-0.78;76.42
68179;BME280;54998;42.656;23.382;2023-02-04T02:32:42;94494.09;;;-0.76;75.97
68179;BME280;54998;42.656;23.382;2023-02-04T02:37:37;94464.81;;;-0.94;76.01
68179;BME280;54998;42.656;23.382;2023-02-04T02:40:03;94461.31;;;-0.92;76.08
68179;BME280;54998;42.656;23.382;2023-02-04T02:42:29;94449.78;;;-0.96;75.88
68179;BME280;54998;42.656;23.382;2023-02-04T02:44:55;94462.97;;;-0.91;75.77
68179;BME280;54998;42.656;23.382;2023-02-04T02:47:22;94450.44;;;-0.92;76.09
68179;BME280;54998;42.656;23.382;2023-02-04T02:49:50;94436.94;;;-0.91;75.93
68179;BME280;54998;42.656;23.382;2023-02-04T02:52:17;94445.47;;;-0.94;76.04
68179;BME280;54998;42.656;23.382;2023-02-04T02:54:42;94451.00;;;-1.03;76.11
68179;BME280;54998;42.656;23.382;2023-02-04T02:57:13;94449.41;;;-1.04;76.52
68179;BME280;54998;42.656;23.382;2023-02-04T02:59:39;94435.66;;;-1.14;76.39
68179;BME280;54998;42.656;23.382;2023-02-04T03:02:05;94450.97;;;-1.35;76.83
68179;BME280;54998;42.656;23.382;2023-02-04T03:04:33;94453.56;;;-1.36;77.53
68179;BME280;54998;42.656;23.382;2023-02-04T03:07:01;94468.28;;;-1.29;77.87
68179;BME280;54998;42.656;23.382;2023-02-04T03:09:27;94460.47;;;-1.24;77.73
68179;BME280;54998;42.656;23.382;2023-02-04T03:11:54;94453.59;;;-1.05;77.14
68179;BME280;54998;42.656;23.382;2023-02-04T03:14:20;94438.91;;;-0.96;76.56
68179;BME280;54998;42.656;23.382;2023-02-04T03:16:48;94460.34;;;-0.89;76.48
68179;BME280;54998;42.656;23.382;2023-02-04T03:19:14;94459.16;;;-0.82;75.78
68179;BME280;54998;42.656;23.382;2023-02-04T03:21:40;94446.38;;;-0.79;75.54
68179;BME280;54998;42.656;23.382;2023-02-04T03:24:06;94443.59;;;-0.74;75.07
68179;BME280;54998;42.656;23.382;2023-02-04T03:26:32;94461.41;;;-0.62;74.57
68179;BME280;54998;42.656;23.382;2023-02-04T03:28:58;94439.72;;;-0.64;74.31
68179;BME280;54998;42.656;23.382;2023-02-04T03:31:23;94439.06;;;-0.68;74.23
68179;BME280;54998;42.656;23.382;2023-02-04T03:33:49;94449.69;;;-0.78;75.13
68179;BME280;54998;42.656;23.382;2023-02-04T03:36:14;94433.47;;;-0.73;74.63
68179;BME280;54998;42.656;23.382;2023-02-04T03:38:40;94436.72;;;-0.71;74.75
68179;BME280;54998;42.656;23.382;2023-02-04T03:41:05;94445.41;;;-0.60;74.53
68179;BME280;54998;42.656;23.382;2023-02-04T03:43:30;94434.16;;;-0.55;73.62
68179;BME280;54998;42.656;23.382;2023-02-04T03:45:56;94432.28;;;-0.51;73.83
68179;BME280;54998;42.656;23.382;2023-02-04T03:48:21;94429.94;;;-0.54;73.62
68179;BME280;54998;42.656;23.382;2023-02-04T03:50:46;94426.28;;;-0.80;74.58
68179;BME280;54998;42.656;23.382;2023-02-04T03:53:12;94423.06;;;-0.67;73.82
68179;BME280;54998;42.656;23.382;2023-02-04T03:55:37;94418.88;;;-0.68;74.29
68179;BME280;54998;42.656;23.382;2023-02-04T03:58:03;94402.16;;;-0.69;73.86
68179;BME280;54998;42.656;23.382;2023-02-04T04:00:29;94397.78;;;-0.81;74.09
68179;BME280;54998;42.656;23.382;2023-02-04T04:02:56;94401.69;;;-0.75;74.14
68179;BME280;54998;42.656;23.382;2023-02-04T04:05:22;94390.22;;;-0.81;74.48
68179;BME280;54998;42.656;23.382;2023-02-04T04:07:47;94379.47;;;-0.69;74.10
68179;BME280;54998;42.656;23.382;2023-02-04T04:10:13;94378.31;;;-0.63;73.78
68179;BME280;54998;42.656;23.382;2023-02-04T04:12:38;94368.09;;;-0.60;73.58
68179;BME280;54998;42.656;23.382;2023-02-04T04:15:05;94362.16;;;-0.75;74.17
68179;BME280;54998;42.656;23.382;2023-02-04T04:17:31;94365.19;;;-0.84;74.69
68179;BME280;54998;42.656;23.382;2023-02-04T04:19:57;94360.13;;;-0.68;74.76
68179;BME280;54998;42.656;23.382;2023-02-04T04:22:22;94353.03;;;-0.62;74.49
68179;BME280;54998;42.656;23.382;2023-02-04T04:24:47;94362.38;;;-0.64;74.40
68179;BME280;54998;42.656;23.382;2023-02-04T04:27:13;94350.50;;;-0.62;74.62
68179;BME280;54998;42.656;23.382;2023-02-04T04:29:38;94363.13;;;-0.62;74.98
68179;BME280;54998;42.656;23.382;2023-02-04T04:32:04;94376.59;;;-0.47;74.36
68179;BME280;54998;42.656;23.382;2023-02-04T04:34:29;94364.97;;;-0.49;74.28
68179;BME280;54998;42.656;23.382;2023-02-04T04:36:55;94382.53;;;-0.48;74.41
68179;BME280;54998;42.656;23.382;2023-02-04T04:39:20;94376.28;;;-0.56;74.61
68179;BME280;54998;42.656;23.382;2023-02-04T04:41:46;94377.22;;;-0.43;74.50
68179;BME280;54998;42.656;23.382;2023-02-04T04:44:11;94385.22;;;-0.51;74.24
68179;BME280;54998;42.656;23.382;2023-02-04T04:46:37;94395.94;;;-0.63;74.66
68179;BME280;54998;42.656;23.382;2023-02-04T04:49:05;94403.59;;;-0.49;74.13
68179;BME280;54998;42.656;23.382;2023-02-04T04:51:30;94395.84;;;-0.46;74.24
68179;BME280;54998;42.656;23.382;2023-02-04T04:53:57;94405.22;;;-0.48;74.05
68179;BME280;54998;42.656;23.382;2023-02-04T04:56:23;94395.75;;;-0.44;73.85
68179;BME280;54998;42.656;23.382;2023-02-04T04:58:48;94400.13;;;-0.32;73.67
68179;BME280;54998;42.656;23.382;2023-02-04T05:01:14;94402.91;;;-0.36;73.73
68179;BME280;54998;42.656;23.382;2023-02-04T05:03:39;94384.88;;;-0.45;74.09
68179;BME280;54998;42.656;23.382;2023-02-04T05:06:05;94395.84;;;-0.46;74.61
68179;BME280;54998;42.656;23.382;2023-02-04T05:08:30;94396.81;;;-0.32;74.64
68179;BME280;54998;42.656;23.382;2023-02-04T05:10:55;94395.69;;;-0.43;75.35
68179;BME280;54998;42.656;23.382;2023-02-04T05:13:21;94394.28;;;-0.63;76.20
68179;BME280;54998;42.656;23.382;2023-02-04T05:15:49;94401.25;;;-0.52;76.28
68179;BME280;54998;42.656;23.382;2023-02-04T05:18:14;94409.94;;;-0.57;76.87
68179;BME280;54998;42.656;23.382;2023-02-04T05:20:40;94417.84;;;-0.64;77.69
68179;BME280;54998;42.656;23.382;2023-02-04T05:23:05;94422.31;;;-0.69;78.74
68179;BME280;54998;42.656;23.382;2023-02-04T05:25:31;94422.00;;;-0.63;79.17
68179;BME280;54998;42.656;23.382;2023-02-04T05:27:56;94423.16;;;-0.84;80.05
68179;BME280;54998;42.656;23.382;2023-02-04T05:30:21;94427.13;;;-0.80;80.55
68179;BME280;54998;42.656;23.382;2023-02-04T05:32:47;94436.22;;;-0.77;81.42
68179;BME280;54998;42.656;23.382;2023-02-04T05:35:12;94426.72;;;-0.56;81.66
68179;BME280;54998;42.656;23.382;2023-02-04T05:37:38;94442.28;;;-0.34;80.71
68179;BME280;54998;42.656;23.382;2023-02-04T05:40:03;94426.47;;;-0.22;80.07
68179;BME280;54998;42.656;23.382;2023-02-04T05:42:29;94430.41;;;0.13;77.46
68179;BME280;54998;42.656;23.382;2023-02-04T05:44:54;94405.91;;;0.58;75.55
68179;BME280;54998;42.656;23.382;2023-02-04T05:47:20;94414.91;;;0.91;73.91
68179;BME280;54998;42.656;23.382;2023-02-04T05:49:45;94439.63;;;1.00;73.11
68179;BME280;54998;42.656;23.382;2023-02-04T05:52:11;94415.09;;;1.02;72.59
68179;BME280;54998;42.656;23.382;2023-02-04T05:54:36;94413.31;;;1.17;70.41
68179;BME280;54998;42.656;23.382;2023-02-04T05:57:02;94410.13;;;1.28;70.54
68179;BME280;54998;42.656;23.382;2023-02-04T05:59:27;94409.91;;;1.18;69.91
68179;BME280;54998;42.656;23.382;2023-02-04T06:01:52;94369.75;;;1.13;70.04
68179;BME280;54998;42.656;23.382;2023-02-04T06:04:18;94392.94;;;1.06;70.09
68179;BME280;54998;42.656;23.382;2023-02-04T06:06:44;94413.34;;;1.02;69.76
68179;BME280;54998;42.656;23.382;2023-02-04T06:09:09;94409.31;;;1.00;69.61
68179;BME280;54998;42.656;23.382;2023-02-04T06:11:35;94409.91;;;1.03;69.69
68179;BME280;54998;42.656;23.382;2023-02-04T06:14:00;94397.97;;;1.20;69.06
68179;BME280;54998;42.656;23.382;2023-02-04T06:16:26;94407.50;;;1.29;68.61
68179;BME280;54998;42.656;23.382;2023-02-04T06:18:51;94410.75;;;1.31;68.20
68179;BME280;54998;42.656;23.382;2023-02-04T06:21:17;94395.38;;;1.34;67.84
68179;BME280;54998;42.656;23.382;2023-02-04T06:23:43;94402.22;;;1.47;67.10
68179;BME280;54998;42.656;23.382;2023-02-04T06:26:08;94408.91;;;1.60;66.63
68179;BME280;54998;42.656;23.382;2023-02-04T06:28:33;94413.88;;;1.62;66.13
68179;BME280;54998;42.656;23.382;2023-02-04T06:30:59;94397.13;;;1.74;65.88
68179;BME280;54998;42.656;23.382;2023-02-04T06:33:24;94406.84;;;1.67;65.39
68179;BME280;54998;42.656;23.382;2023-02-04T06:35:50;94415.19;;;1.55;65.34
68179;BME280;54998;42.656;23.382;2023-02-04T06:38:15;94410.03;;;1.56;65.20
68179;BME280;54998;42.656;23.382;2023-02-04T06:40:41;94421.09;;;1.68;65.00
68179;BME280;54998;42.656;23.382;2023-02-04T06:43:06;94408.88;;;1.75;64.70
68179;BME280;54998;42.656;23.382;2023-02-04T06:45:32;94411.91;;;1.80;63.99
68179;BME280;54998;42.656;23.382;2023-02-04T06:47:57;94411.31;;;1.76;64.22
68179;BME280;54998;42.656;23.382;2023-02-04T06:50:22;94409.28;;;1.81;64.04
68179;BME280;54998;42.656;23.382;2023-02-04T06:52:48;94413.88;;;1.89;63.05
68179;BME280;54998;42.656;23.382;2023-02-04T06:55:14;94395.06;;;1.93;62.38
68179;BME280;54998;42.656;23.382;2023-02-04T06:57:40;94412.97;;;2.03;62.27
68179;BME280;54998;42.656;23.382;2023-02-04T07:00:06;94406.88;;;1.93;62.49
68179;BME280;54998;42.656;23.382;2023-02-04T07:02:33;94402.66;;;1.93;62.56
68179;BME280;54998;42.656;23.382;2023-02-04T07:04:58;94401.03;;;2.05;61.95
68179;BME280;54998;42.656;23.382;2023-02-04T07:07:25;94387.34;;;2.08;62.17
68179;BME280;54998;42.656;23.382;2023-02-04T07:09:51;94396.59;;;2.09;61.94
68179;BME280;54998;42.656;23.382;2023-02-04T07:12:16;94394.56;;;3.02;59.62
68179;BME280;54998;42.656;23.382;2023-02-04T07:14:41;94389.81;;;3.58;56.86
68179;BME280;54998;42.656;23.382;2023-02-04T07:17:07;94384.81;;;4.39;54.92
68179;BME280;54998;42.656;23.382;2023-02-04T07:19:32;94371.38;;;4.14;54.85
68179;BME280;54998;42.656;23.382;2023-02-04T07:21:59;94396.22;;;5.01;52.27
68179;BME280;54998;42.656;23.382;2023-02-04T07:24:24;94392.66;;;4.81;52.87
68179;BME280;54998;42.656;23.382;2023-02-04T07:26:50;94385.75;;;4.71;53.13
68179;BME280;54998;42.656;23.382;2023-02-04T07:29:16;94390.31;;;4.10;54.79
68179;BME280;54998;42.656;23.382;2023-02-04T07:31:43;94385.97;;;3.88;55.32
68179;BME280;54998;42.656;23.382;2023-02-04T07:34:12;94380.53;;;4.50;54.29
68179;BME280;54998;42.656;23.382;2023-02-04T07:36:38;94373.78;;;5.61;50.96
68179;BME280;54998;42.656;23.382;2023-02-04T07:39:04;94374.09;;;6.72;48.43
68179;BME280;54998;42.656;23.382;2023-02-04T07:41:29;94379.47;;;7.39;45.08
68179;BME280;54998;42.656;23.382;2023-02-04T07:43:55;94380.34;;;6.99;46.95
68179;BME280;54998;42.656;23.382;2023-02-04T07:46:20;94352.16;;;6.08;47.98
68179;BME280;54998;42.656;23.382;2023-02-04T07:48:45;94395.41;;;6.71;46.88
68179;BME280;54998;42.656;23.382;2023-02-04T07:51:11;94392.50;;;5.71;49.35
68179;BME280;54998;42.656;23.382;2023-02-04T07:53:36;94364.72;;;5.68;49.90
68179;BME280;54998;42.656;23.382;2023-02-04T07:56:02;94372.66;;;5.53;50.59
68179;BME280;54998;42.656;23.382;2023-02-04T07:58:27;94370.91;;;7.59;46.14
68179;BME280;54998;42.656;23.382;2023-02-04T08:00:53;94353.44;;;7.65;45.70
68179;BME280;54998;42.656;23.382;2023-02-04T08:03:18;94372.06;;;8.53;42.90
68179;BME280;54998;42.656;23.382;2023-02-04T08:05:43;94351.56;;;7.76;44.71
68179;BME280;54998;42.656;23.382;2023-02-04T08:08:09;94368.63;;;6.25;47.56
68179;BME280;54998;42.656;23.382;2023-02-04T08:10:34;94379.06;;;5.69;48.62
68179;BME280;54998;42.656;23.382;2023-02-04T08:15:30;94381.72;;;4.69;52.44
68179;BME280;54998;42.656;23.382;2023-02-04T08:17:56;94381.81;;;4.79;52.70
68179;BME280;54998;42.656;23.382;2023-02-04T08:20:21;94379.97;;;4.69;52.45
68179;BME280;54998;42.656;23.382;2023-02-04T08:22:47;94383.16;;;4.15;54.37
68179;BME280;54998;42.656;23.382;2023-02-04T08:25:12;94374.84;;;4.36;54.12
68179;BME280;54998;42.656;23.382;2023-02-04T08:27:38;94383.16;;;4.15;54.83
68179;BME280;54998;42.656;23.382;2023-02-04T08:30:04;94372.72;;;3.96;55.24
68179;BME280;54998;42.656;23.382;2023-02-04T08:32:29;94373.69;;;4.06;55.22
68179;BME280;54998;42.656;23.382;2023-02-04T08:34:56;94380.72;;;4.25;54.81
68179;BME280;54998;42.656;23.382;2023-02-04T08:37:21;94382.97;;;4.41;54.76
68179;BME280;54998;42.656;23.382;2023-02-04T08:39:47;94375.19;;;4.20;54.90
68179;BME280;54998;42.656;23.382;2023-02-04T08:42:13;94371.88;;;4.42;54.73
68179;BME280;54998;42.656;23.382;2023-02-04T08:44:39;94363.16;;;3.99;56.06
68179;BME280;54998;42.656;23.382;2023-02-04T08:47:05;94369.25;;;3.97;56.04
68179;BME280;54998;42.656;23.382;2023-02-04T08:49:30;94368.09;;;3.89;56.17
68179;BME280;54998;42.656;23.382;2023-02-04T08:51:55;94368.34;;;3.98;55.92
68179;BME280;54998;42.656;23.382;2023-02-04T08:54:21;94378.03;;;3.93;56.28
68179;BME280;54998;42.656;23.382;2023-02-04T08:56:46;94377.25;;;3.68;57.45
68179;BME280;54998;42.656;23.382;2023-02-04T08:59:12;94368.50;;;3.72;57.81
68179;BME280;54998;42.656;23.382;2023-02-04T09:01:37;94382.53;;;3.89;57.27
68179;BME280;54998;42.656;23.382;2023-02-04T09:04:02;94385.22;;;3.75;57.99
68179;BME280;54998;42.656;23.382;2023-02-04T09:06:28;94377.78;;;3.84;57.69
68179;BME280;54998;42.656;23.382;2023-02-04T09:08:53;94391.22;;;4.09;57.06
68179;BME280;54998;42.656;23.382;2023-02-04T09:11:19;94384.31;;;4.11;57.01
68179;BME280;54998;42.656;23.382;2023-02-04T09:13:44;94380.16;;;4.10;56.91
68179;BME280;54998;42.656;23.382;2023-02-04T09:16:09;94379.31;;;4.09;56.58
68179;BME280;54998;42.656;23.382;2023-02-04T09:18:35;94377.88;;;4.29;56.14
68179;BME280;54998;42.656;23.382;2023-02-04T09:21:00;94372.28;;;4.02;56.44
68179;BME280;54998;42.656;23.382;2023-02-04T09:23:26;94372.03;;;4.05;56.34
68179;BME280;54998;42.656;23.382;2023-02-04T09:25:51;94372.97;;;3.93;56.87
68179;BME280;54998;42.656;23.382;2023-02-04T09:28:17;94352.06;;;3.89;56.12
68179;BME280;54998;42.656;23.382;2023-02-04T09:30:44;94351.63;;;4.06;55.76
68179;BME280;54998;42.656;23.382;2023-02-04T09:33:11;94342.06;;;4.10;55.56
68179;BME280;54998;42.656;23.382;2023-02-04T09:35:37;94349.34;;;4.26;55.15
68179;BME280;54998;42.656;23.382;2023-02-04T09:38:03;94333.97;;;4.16;55.19
68179;BME280;54998;42.656;23.382;2023-02-04T09:40:33;94349.78;;;3.97;56.37
68179;BME280;54998;42.656;23.382;2023-02-04T09:43:01;94351.16;;;4.01;56.70
68179;BME280;54998;42.656;23.382;2023-02-04T09:45:32;94352.06;;;3.54;59.83
68179;BME280;54998;42.656;23.382;2023-02-04T09:47:59;94359.50;;;3.79;59.58
68179;BME280;54998;42.656;23.382;2023-02-04T09:50:27;94347.25;;;3.38;61.22
68179;BME280;54998;42.656;23.382;2023-02-04T09:52:55;94341.56;;;2.86;63.86
68179;BME280;54998;42.656;23.382;2023-02-04T09:55:27;94356.50;;;3.15;64.12
68179;BME280;54998;42.656;23.382;2023-02-04T09:57:53;94355.16;;;2.98;64.51
68179;BME280;54998;42.656;23.382;2023-02-04T10:00:22;94345.72;;;3.00;64.83
68179;BME280;54998;42.656;23.382;2023-02-04T10:02:48;94334.59;;;3.14;64.85
68179;BME280;54998;42.656;23.382;2023-02-04T10:05:32;94328.06;;;3.22;64.61
68179;BME280;54998;42.656;23.382;2023-02-04T10:08:00;94322.00;;;3.12;64.27
68179;BME280;54998;42.656;23.382;2023-02-04T10:10:28;94336.09;;;3.16;65.09
68179;BME280;54998;42.656;23.382;2023-02-04T10:12:57;94314.63;;;3.09;64.47
68179;BME280;54998;42.656;23.382;2023-02-04T10:15:24;94313.41;;;3.15;64.39
68179;BME280;54998;42.656;23.382;2023-02-04T10:17:57;94319.50;;;3.36;63.24
68179;BME280;54998;42.656;23.382;2023-02-04T10:20:26;94318.69;;;3.71;62.51
68179;BME280;54998;42.656;23.382;2023-02-04T10:22:53;94297.78;;;3.79;61.36
68179;BME280;54998;42.656;23.382;2023-02-04T10:25:21;94305.72;;;3.52;62.13
68179;BME280;54998;42.656;23.382;2023-02-04T10:27:48;94298.16;;;3.39;62.70
68179;BME280;54998;42.656;23.382;2023-02-04T10:30:20;94289.81;;;3.01;63.66
68179;BME280;54998;42.656;23.382;2023-02-04T10:32:47;94303.97;;;3.17;63.39
68179;BME280;54998;42.656;23.382;2023-02-04T10:35:14;94302.41;;;3.38;63.16
68179;BME280;54998;42.656;23.382;2023-02-04T10:37:40;94276.09;;;3.63;61.56
68179;BME280;54998;42.656;23.382;2023-02-04T10:42:53;94288.09;;;3.73;61.59
68179;BME280;54998;42.656;23.382;2023-02-04T10:45:28;94282.94;;;3.39;63.94
68179;BME280;54998;42.656;23.382;2023-02-04T10:47:55;94304.75;;;3.41;64.71
68179;BME280;54998;42.656;23.382;2023-02-04T10:50:23;94281.84;;;3.54;65.42
68179;BME280;54998;42.656;23.382;2023-02-04T10:52:54;94288.03;;;2.91;67.08
68179;BME280;54998;42.656;23.382;2023-02-04T10:55:40;94290.50;;;3.03;67.49
68179;BME280;54998;42.656;23.382;2023-02-04T10:58:09;94291.22;;;3.05;67.43
68179;BME280;54998;42.656;23.382;2023-02-04T11:00:35;94285.59;;;3.37;67.19
68179;BME280;54998;42.656;23.382;2023-02-04T11:03:11;94276.53;;;3.22;67.19
68179;BME280;54998;42.656;23.382;2023-02-04T11:05:39;94288.19;;;3.24;67.32
68179;BME280;54998;42.656;23.382;2023-02-04T11:08:23;94286.47;;;3.01;67.47
68179;BME280;54998;42.656;23.382;2023-02-04T11:14:17;94281.06;;;3.65;65.52
68179;BME280;54998;42.656;23.382;2023-02-04T11:18:59;94261.00;;;3.84;64.26
68179;BME280;54998;42.656;23.382;2023-02-04T11:24:16;94277.84;;;3.85;63.59
68179;BME280;54998;42.656;23.382;2023-02-04T11:26:52;94271.63;;;3.89;62.23
68179;BME280;54998;42.656;23.382;2023-02-04T11:29:33;94277.19;;;4.28;62.01
68179;BME280;54998;42.656;23.382;2023-02-04T11:32:25;94269.31;;;4.31;61.20
68179;BME280;54998;42.656;23.382;2023-02-04T11:34:51;94279.81;;;4.49;60.57
68179;BME280;54998;42.656;23.382;2023-02-04T11:37:43;94271.16;;;3.73;63.30
68179;BME280;54998;42.656;23.382;2023-02-04T11:40:27;94289.34;;;3.56;64.88
68179;BME280;54998;42.656;23.382;2023-02-04T11:42:58;94288.03;;;3.50;64.67
68179;BME280;54998;42.656;23.382;2023-02-04T11:45:33;94285.53;;;3.61;64.95
68179;BME280;54998;42.656;23.382;2023-02-04T11:48:10;94293.88;;;3.75;64.78
68179;BME280;54998;42.656;23.382;2023-02-04T11:50:37;94286.56;;;3.59;64.93
68179;BME280;54998;42.656;23.382;2023-02-04T11:53:03;94291.78;;;3.33;66.46
68179;BME280;54998;42.656;23.382;2023-02-04T11:55:34;94278.00;;;3.13;67.44
68179;BME280;54998;42.656;23.382;2023-02-04T11:58:01;94280.28;;;3.05;68.47
68179;BME280;54998;42.656;23.382;2023-02-04T12:00:31;94277.34;;;3.22;67.87
68179;BME280;54998;42.656;23.382;2023-02-04T12:03:03;94268.38;;;3.65;66.42
68179;BME280;54998;42.656;23.382;2023-02-04T12:05:58;94274.59;;;3.72;66.28
68179;BME280;54998;42.656;23.382;2023-02-04T12:08:29;94267.69;;;3.74;66.29
68179;BME280;54998;42.656;23.382;2023-02-04T12:11:10;94261.03;;;3.49;66.25
68179;BME280;54998;42.656;23.382;2023-02-04T12:13:50;94239.22;;;3.24;67.08
68179;BME280;54998;42.656;23.382;2023-02-04T12:16:17;94268.84;;;3.23;67.32
68179;BME280;54998;42.656;23.382;2023-02-04T12:18:42;94262.03;;;3.24;68.26
68179;BME280;54998;42.656;23.382;2023-02-04T12:21:07;94263.72;;;2.88;69.30
68179;BME280;54998;42.656;23.382;2023-02-04T12:23:33;94257.41;;;2.94;69.76
68179;BME280;54998;42.656;23.382;2023-02-04T12:25:58;94243.34;;;2.65;70.63
68179;BME280;54998;42.656;23.382;2023-02-04T12:28:24;94257.22;;;2.60;71.40
68179;BME280;54998;42.656;23.382;2023-02-04T12:30:52;94261.34;;;2.74;71.13
68179;BME280;54998;42.656;23.382;2023-02-04T12:33:17;94260.75;;;2.94;70.77
68179;BME280;54998;42.656;23.382;2023-02-04T12:35:43;94240.66;;;2.80;71.33
68179;BME280;54998;42.656;23.382;2023-02-04T12:38:08;94244.53;;;2.73;71.28
68179;BME280;54998;42.656;23.382;2023-02-04T12:40:34;94260.28;;;2.89;71.19
68179;BME280;54998;42.656;23.382;2023-02-04T12:43:01;94250.91;;;2.78;71.68
68179;BME280;54998;42.656;23.382;2023-02-04T12:45:27;94252.78;;;2.63;71.39
68179;BME280;54998;42.656;23.382;2023-02-04T12:47:52;94252.34;;;2.70;71.14
68179;BME280;54998;42.656;23.382;2023-02-04T12:50:18;94244.75;;;2.70;70.86
68179;BME280;54998;42.656;23.382;2023-02-04T12:52:51;94232.19;;;2.68;70.83
68179;BME280;54998;42.656;23.382;2023-02-04T12:55:18;94250.25;;;2.87;69.88
68179;BME280;54998;42.656;23.382;2023-02-04T12:57:43;94246.91;;;2.87;69.19
68179;BME280;54998;42.656;23.382;2023-02-04T13:00:10;94232.06;;;2.94;67.64
68179;BME280;54998;42.656;23.382;2023-02-04T13:02:36;94243.59;;;2.98;67.30
68179;BME280;54998;42.656;23.382;2023-02-04T13:05:01;94225.38;;;3.28;66.12
68179;BME280;54998;42.656;23.382;2023-02-04T13:07:27;94240.00;;;3.24;65.02
68179;BME280;54998;42.656;23.382;2023-02-04T13:09:52;94249.22;;;2.90;66.41